sensor_id;sensor_type;location;lat;lon;timestamp;pressure;altitude;pressure_sealevel;temperature;humidity
77216;BME280;66210;53.282;9.864;2024-02-21T00:01:22;101272.34;;;8.14;100.00
77216;BME280;66210;53.282;9.864;2024-02-21T00:03:49;101262.81;;;8.10;100.00
77216;BME280;66210;53.282;9.864;2024-02-21T00:06:15;101267.84;;;8.10;100.00
77216;BME280;66210;53.282;9.864;2024-02-21T00:08:42;101261.94;;;8.09;100.00
77216;BME280;66210;53.282;9.864;2024-02-21T00:11:09;101267.06;;;8.11;100.00
77216;BME280;66210;53.282;9.864;2024-02-21T00:13:36;101244.00;;;8.06;100.00
77216;BME280;66210;53.282;9.864;2024-02-21T00:16:03;101250.16;;;8.10;100.00
77216;BME280;66210;53.282;9.864;2024-02-21T00:18:29;101248.94;;;8.05;100.00
77216;BME280;66210;53.282;9.864;2024-02-21T00:20:56;101250.16;;;8.10;100.00
77216;BME280;66210;53.282;9.864;2024-02-21T00:23:23;101240.50;;;8.04;100.00
77216;BME280;66210;53.282;9.864;2024-02-21T00:25:50;101245.56;;;8.04;100.00
77216;BME280;66210;53.282;9.864;2024-02-21T00:28:16;101246.53;;;8.06;100.00
77216;BME280;66210;53.282;9.864;2024-02-21T00:30:43;101240.59;;;8.06;100.00
77216;BME280;66210;53.282;9.864;2024-02-21T00:33:10;101235.94;;;7.99;100.00
77216;BME280;66210;53.282;9.864;2024-02-21T00:35:37;101225.00;;;8.00;100.00
77216;BME280;66210;53.282;9.864;2024-02-21T00:38:04;101226.28;;;8.06;100.00
77216;BME280;66210;53.282;9.864;2024-02-21T00:40:31;101211.69;;;8.02;100.00
77216;BME280;66210;53.282;9.864;2024-02-21T00:42:58;101211.50;;;7.99;100.00
77216;BME280;66210;53.282;9.864;2024-02-21T00:45:24;101205.94;;;8.05;100.00
77216;BME280;66210;53.282;9.864;2024-02-21T00:47:51;101212.47;;;8.01;100.00
77216;BME280;66210;53.282;9.864;2024-02-21T00:50:18;101205.84;;;8.03;100.00
77216;BME280;66210;53.282;9.864;2024-02-21T00:52:45;101199.72;;;8.00;100.00
77216;BME280;66210;53.282;9.864;2024-02-21T00:55:11;101214.41;;;8.05;100.00
77216;BME280;66210;53.282;9.864;2024-02-21T00:57:38;101206.84;;;8.05;100.00
77216;BME280;66210;53.282;9.864;2024-02-21T01:00:05;101206.03;;;8.06;100.00
77216;BME280;66210;53.282;9.864;2024-02-21T01:02:32;101213.63;;;8.06;100.00
77216;BME280;66210;53.282;9.864;2024-02-21T01:04:59;101204.38;;;8.07;100.00
77216;BME280;66210;53.282;9.864;2024-02-21T01:07:30;101208.84;;;8.11;100.00
77216;BME280;66210;53.282;9.864;2024-02-21T01:09:57;101188.03;;;8.02;100.00
77216;BME280;66210;53.282;9.864;2024-02-21T01:12:24;101199.41;;;8.08;100.00
77216;BME280;66210;53.282;9.864;2024-02-21T01:14:50;101187.63;;;8.09;100.00
77216;BME280;66210;53.282;9.864;2024-02-21T01:17:17;101183.25;;;8.06;100.00
77216;BME280;66210;53.282;9.864;2024-02-21T01:19:46;101178.41;;;8.09;100.00
77216;BME280;66210;53.282;9.864;2024-02-21T01:22:13;101173.34;;;8.09;100.00
77216;BME280;66210;53.282;9.864;2024-02-21T01:24:41;101169.34;;;8.13;100.00
77216;BME280;66210;53.282;9.864;2024-02-21T01:27:07;101169.22;;;8.11;100.00
77216;BME280;66210;53.282;9.864;2024-02-21T01:29:34;101165.06;;;8.12;100.00
77216;BME280;66210;53.282;9.864;2024-02-21T01:32:01;101163.31;;;8.11;100.00
77216;BME280;66210;53.282;9.864;2024-02-21T01:34:27;101163.59;;;8.16;100.00
77216;BME280;66210;53.282;9.864;2024-02-21T01:36:58;101165.84;;;8.11;100.00
77216;BME280;66210;53.282;9.864;2024-02-21T01:39:25;101163.41;;;8.12;100.00
77216;BME280;66210;53.282;9.864;2024-02-21T01:41:53;101162.63;;;8.13;100.00
77216;BME280;66210;53.282;9.864;2024-02-21T01:44:19;101152.50;;;8.13;100.00
77216;BME280;66210;53.282;9.864;2024-02-21T01:46:46;101157.56;;;8.13;100.00
77216;BME280;66210;53.282;9.864;2024-02-21T01:49:12;101135.38;;;8.09;100.00
77216;BME280;66210;53.282;9.864;2024-02-21T01:51:40;101148.63;;;8.19;100.00
77216;BME280;66210;53.282;9.864;2024-02-21T01:54:07;101145.19;;;8.18;100.00
77216;BME280;66210;53.282;9.864;2024-02-21T01:56:33;101134.97;;;8.17;100.00
77216;BME280;66210;53.282;9.864;2024-02-21T01:59:00;101132.44;;;8.17;100.00
77216;BME280;66210;53.282;9.864;2024-02-21T02:01:28;101132.53;;;8.18;100.00
77216;BME280;66210;53.282;9.864;2024-02-21T02:03:54;101126.00;;;8.22;100.00
77216;BME280;66210;53.282;9.864;2024-02-21T02:06:21;101117.25;;;8.17;100.00
77216;BME280;66210;53.282;9.864;2024-02-21T02:22:00;101055.06;;;8.07;100.00
77216;BME280;66210;53.282;9.864;2024-02-21T02:24:31;101052.81;;;8.11;100.00
77216;BME280;66210;53.282;9.864;2024-02-21T02:26:58;101062.88;;;8.10;100.00
77216;BME280;66210;53.282;9.864;2024-02-21T02:29:24;101050.09;;;8.08;100.00
77216;BME280;66210;53.282;9.864;2024-02-21T02:31:51;101050.09;;;8.08;100.00
77216;BME280;66210;53.282;9.864;2024-02-21T02:34:17;101041.81;;;8.11;100.00
77216;BME280;66210;53.282;9.864;2024-02-21T02:36:44;101036.75;;;8.11;100.00
77216;BME280;66210;53.282;9.864;2024-02-21T02:39:11;101045.22;;;8.11;100.00
77216;BME280;66210;53.282;9.864;2024-02-21T02:41:38;101037.44;;;8.08;100.00
77216;BME280;66210;53.282;9.864;2024-02-21T02:44:04;101030.84;;;8.10;100.00
77216;BME280;66210;53.282;9.864;2024-02-21T02:46:31;101017.31;;;8.10;100.00
77216;BME280;66210;53.282;9.864;2024-02-21T02:48:57;101013.72;;;8.06;100.00
77216;BME280;66210;53.282;9.864;2024-02-21T02:51:24;101010.59;;;8.10;100.00
77216;BME280;66210;53.282;9.864;2024-02-21T02:53:51;101005.34;;;8.07;100.00
77216;BME280;66210;53.282;9.864;2024-02-21T02:56:17;100991.03;;;8.08;100.00
77216;BME280;66210;53.282;9.864;2024-02-21T02:58:44;101000.72;;;8.15;100.00
77216;BME280;66210;53.282;9.864;2024-02-21T03:01:11;100988.69;;;8.11;100.00
77216;BME280;66210;53.282;9.864;2024-02-21T03:03:37;100993.84;;;8.12;100.00
77216;BME280;66210;53.282;9.864;2024-02-21T03:06:04;100999.88;;;8.15;100.00
77216;BME280;66210;53.282;9.864;2024-02-21T03:08:31;101005.53;;;8.10;100.00
77216;BME280;66210;53.282;9.864;2024-02-21T03:10:59;101005.81;;;8.15;100.00
77216;BME280;66210;53.282;9.864;2024-02-21T03:13:26;101012.53;;;8.15;100.00
77216;BME280;66210;53.282;9.864;2024-02-21T03:15:53;101011.66;;;8.14;100.00
77216;BME280;66210;53.282;9.864;2024-02-21T03:18:20;101012.78;;;8.19;100.00
77216;BME280;66210;53.282;9.864;2024-02-21T03:20:47;101014.34;;;8.17;100.00
77216;BME280;66210;53.282;9.864;2024-02-21T03:23:13;101020.22;;;8.16;100.00
77216;BME280;66210;53.282;9.864;2024-02-21T03:25:40;101032.25;;;8.20;100.00
77216;BME280;66210;53.282;9.864;2024-02-21T03:28:07;101017.69;;;8.16;100.00
77216;BME280;66210;53.282;9.864;2024-02-21T03:30:33;101027.19;;;8.20;100.00
77216;BME280;66210;53.282;9.864;2024-02-21T03:33:00;101013.56;;;8.18;100.00
77216;BME280;66210;53.282;9.864;2024-02-21T03:35:27;101022.22;;;8.22;100.00
77216;BME280;66210;53.282;9.864;2024-02-21T03:37:54;101022.06;;;8.19;100.00
77216;BME280;66210;53.282;9.864;2024-02-21T03:40:21;101025.56;;;8.21;100.00
77216;BME280;66210;53.282;9.864;2024-02-21T03:42:48;101023.09;;;8.22;100.00
77216;BME280;66210;53.282;9.864;2024-02-21T03:45:14;101024.06;;;8.24;100.00
77216;BME280;66210;53.282;9.864;2024-02-21T03:47:41;101006.94;;;8.20;100.00
77216;BME280;66210;53.282;9.864;2024-02-21T03:50:08;101022.31;;;8.23;100.00
77216;BME280;66210;53.282;9.864;2024-02-21T03:56:44;101024.16;;;8.26;100.00
77216;BME280;66210;53.282;9.864;2024-02-21T03:59:11;101020.75;;;8.25;100.00
77216;BME280;66210;53.282;9.864;2024-02-21T04:01:38;101021.34;;;8.21;100.00
77216;BME280;66210;53.282;9.864;2024-02-21T04:04:05;101030.19;;;8.28;100.00
77216;BME280;66210;53.282;9.864;2024-02-21T04:06:32;101018.50;;;8.30;100.00
77216;BME280;66210;53.282;9.864;2024-02-21T04:08:58;101014.22;;;8.29;100.00
77216;BME280;66210;53.282;9.864;2024-02-21T04:11:25;101002.94;;;8.24;100.00
77216;BME280;66210;53.282;9.864;2024-02-21T04:13:52;101008.19;;;8.27;100.00
77216;BME280;66210;53.282;9.864;2024-02-21T04:16:19;101005.75;;;8.28;100.00
77216;BME280;66210;53.282;9.864;2024-02-21T04:18:46;101016.56;;;8.26;100.00
77216;BME280;66210;53.282;9.864;2024-02-21T04:21:14;100999.53;;;8.23;100.00
77216;BME280;66210;53.282;9.864;2024-02-21T04:23:42;101009.94;;;8.28;100.00
77216;BME280;66210;53.282;9.864;2024-02-21T04:26:08;101001.38;;;8.26;100.00
77216;BME280;66210;53.282;9.864;2024-02-21T04:28:35;101000.31;;;8.22;100.00
77216;BME280;66210;53.282;9.864;2024-02-21T04:31:02;100995.19;;;8.21;100.00
77216;BME280;66210;53.282;9.864;2024-02-21T04:33:28;100992.81;;;8.24;100.00
77216;BME280;66210;53.282;9.864;2024-02-21T04:35:55;100988.47;;;8.21;100.00
77216;BME280;66210;53.282;9.864;2024-02-21T04:38:21;101000.91;;;8.18;100.00
77216;BME280;66210;53.282;9.864;2024-02-21T04:40:48;100994.13;;;8.17;100.00
77216;BME280;66210;53.282;9.864;2024-02-21T04:43:15;100993.84;;;8.12;100.00
77216;BME280;66210;53.282;9.864;2024-02-21T04:45:42;100981.28;;;8.14;100.00
77216;BME280;66210;53.282;9.864;2024-02-21T04:48:08;100981.34;;;8.16;100.00
77216;BME280;66210;53.282;9.864;2024-02-21T04:50:35;100975.94;;;8.09;100.00
77216;BME280;66210;53.282;9.864;2024-02-21T04:53:02;100978.66;;;8.12;100.00
77216;BME280;66210;53.282;9.864;2024-02-21T04:55:29;100975.84;;;8.08;100.00
77216;BME280;66210;53.282;9.864;2024-02-21T04:57:55;100975.06;;;8.09;100.00
77216;BME280;66210;53.282;9.864;2024-02-21T05:00:22;100973.13;;;8.05;100.00
77216;BME280;66210;53.282;9.864;2024-02-21T05:02:49;100974.00;;;8.05;100.00
77216;BME280;66210;53.282;9.864;2024-02-21T05:05:16;100972.06;;;8.01;100.00
77216;BME280;66210;53.282;9.864;2024-02-21T05:07:43;100962.22;;;8.06;100.00
77216;BME280;66210;53.282;9.864;2024-02-21T05:10:10;100967.28;;;8.06;100.00
77216;BME280;66210;53.282;9.864;2024-02-21T05:12:36;100963.00;;;8.05;100.00
77216;BME280;66210;53.282;9.864;2024-02-21T05:15:03;100946.41;;;7.95;100.00
77216;BME280;66210;53.282;9.864;2024-02-21T05:17:30;100943.00;;;7.95;100.00
77216;BME280;66210;53.282;9.864;2024-02-21T05:19:57;100958.72;;;8.04;100.00
77216;BME280;66210;53.282;9.864;2024-02-21T05:22:24;100968.97;;;8.05;100.00
77216;BME280;66210;53.282;9.864;2024-02-21T05:24:51;100968.75;;;8.02;100.00
77216;BME280;66210;53.282;9.864;2024-02-21T05:27:18;100968.97;;;8.05;100.00
77216;BME280;66210;53.282;9.864;2024-02-21T05:29:45;100968.84;;;8.04;100.00
77216;BME280;66210;53.282;9.864;2024-02-21T05:32:11;100958.72;;;8.04;100.00
77216;BME280;66210;53.282;9.864;2024-02-21T05:34:38;100955.50;;;8.06;100.00
77216;BME280;66210;53.282;9.864;2024-02-21T05:37:05;100953.50;;;8.01;100.00
77216;BME280;66210;53.282;9.864;2024-02-21T05:39:31;100945.97;;;8.02;100.00
77216;BME280;66210;53.282;9.864;2024-02-21T05:41:58;100955.59;;;8.08;100.00
77216;BME280;66210;53.282;9.864;2024-02-21T05:44:25;100948.50;;;8.02;100.00
77216;BME280;66210;53.282;9.864;2024-02-21T05:46:53;100951.94;;;8.03;100.00
77216;BME280;66210;53.282;9.864;2024-02-21T05:49:20;100936.38;;;7.97;100.00
77216;BME280;66210;53.282;9.864;2024-02-21T05:51:46;100950.06;;;8.00;100.00
77216;BME280;66210;53.282;9.864;2024-02-21T05:54:13;100937.84;;;7.93;100.00
77216;BME280;66210;53.282;9.864;2024-02-21T05:56:44;100957.06;;;8.04;100.00
77216;BME280;66210;53.282;9.864;2024-02-21T05:59:10;100956.09;;;8.02;100.00
77216;BME280;66210;53.282;9.864;2024-02-21T06:01:37;100954.63;;;8.06;100.00
77216;BME280;66210;53.282;9.864;2024-02-21T06:04:04;100952.88;;;8.05;100.00
77216;BME280;66210;53.282;9.864;2024-02-21T06:06:31;100952.88;;;8.05;100.00
77216;BME280;66210;53.282;9.864;2024-02-21T06:08:57;100950.88;;;7.99;100.00
77216;BME280;66210;53.282;9.864;2024-02-21T06:11:25;100954.47;;;8.03;100.00
77216;BME280;66210;53.282;9.864;2024-02-21T06:13:52;100956.03;;;8.01;100.00
77216;BME280;66210;53.282;9.864;2024-02-21T06:16:19;100946.50;;;7.97;100.00
77216;BME280;66210;53.282;9.864;2024-02-21T06:18:45;100966.22;;;8.02;100.00
77216;BME280;66210;53.282;9.864;2024-02-21T06:21:12;100960.41;;;8.03;100.00
77216;BME280;66210;53.282;9.864;2024-02-21T06:23:38;100968.00;;;8.03;100.00
77216;BME280;66210;53.282;9.864;2024-02-21T06:26:05;100961.16;;;8.02;100.00
77216;BME280;66210;53.282;9.864;2024-02-21T06:28:32;100964.38;;;8.00;100.00
77216;BME280;66210;53.282;9.864;2024-02-21T06:30:58;100957.66;;;8.00;100.00
77216;BME280;66210;53.282;9.864;2024-02-21T06:33:25;100949.91;;;7.97;100.00
77216;BME280;66210;53.282;9.864;2024-02-21T06:35:52;100951.84;;;8.01;100.00
77216;BME280;66210;53.282;9.864;2024-02-21T06:38:19;100957.06;;;8.04;100.00
77216;BME280;66210;53.282;9.864;2024-02-21T06:40:46;100958.72;;;8.04;100.00
77216;BME280;66210;53.282;9.864;2024-02-21T06:43:18;100958.72;;;8.04;100.00
77216;BME280;66210;53.282;9.864;2024-02-21T06:45:45;100952.69;;;8.02;100.00
77216;BME280;66210;53.282;9.864;2024-02-21T06:48:17;100956.09;;;8.02;100.00
77216;BME280;66210;53.282;9.864;2024-02-21T06:50:45;100948.25;;;7.98;100.00
77216;BME280;66210;53.282;9.864;2024-02-21T06:53:12;100961.97;;;8.01;100.00
77216;BME280;66210;53.282;9.864;2024-02-21T06:55:39;100959.59;;;8.04;100.00
77216;BME280;66210;53.282;9.864;2024-02-21T06:58:05;100952.88;;;8.05;100.00
77216;BME280;66210;53.282;9.864;2024-02-21T07:00:35;100949.56;;;8.06;100.00
77216;BME280;66210;53.282;9.864;2024-02-21T07:03:01;100948.50;;;8.02;100.00
77216;BME280;66210;53.282;9.864;2024-02-21T07:05:28;100959.31;;;8.00;100.00
77216;BME280;66210;53.282;9.864;2024-02-21T07:07:56;100962.22;;;8.06;100.00
77216;BME280;66210;53.282;9.864;2024-02-21T07:10:22;100958.84;;;8.05;100.00
77216;BME280;66210;53.282;9.864;2024-02-21T07:12:49;100969.28;;;8.11;100.00
77216;BME280;66210;53.282;9.864;2024-02-21T07:15:18;100956.09;;;8.02;100.00
77216;BME280;66210;53.282;9.864;2024-02-21T07:17:45;100970.88;;;8.09;100.00
77216;BME280;66210;53.282;9.864;2024-02-21T07:20:11;100965.84;;;8.09;100.00
77216;BME280;66210;53.282;9.864;2024-02-21T07:22:38;100970.00;;;8.09;100.00
77216;BME280;66210;53.282;9.864;2024-02-21T07:25:05;100972.34;;;8.06;100.00
77216;BME280;66210;53.282;9.864;2024-02-21T07:27:33;100981.09;;;8.11;100.00
77216;BME280;66210;53.282;9.864;2024-02-21T07:30:00;100974.78;;;8.04;100.00
77216;BME280;66210;53.282;9.864;2024-02-21T07:32:26;100978.47;;;8.09;100.00
77216;BME280;66210;53.282;9.864;2024-02-21T07:34:54;100984.69;;;8.15;100.00
77216;BME280;66210;53.282;9.864;2024-02-21T07:37:21;100976.28;;;8.16;100.00
77216;BME280;66210;53.282;9.864;2024-02-21T07:39:48;100970.97;;;8.11;100.00
77216;BME280;66210;53.282;9.864;2024-02-21T07:42:14;100970.88;;;8.09;100.00
77216;BME280;66210;53.282;9.864;2024-02-21T07:44:42;100969.22;;;8.10;100.00
77216;BME280;66210;53.282;9.864;2024-02-21T07:47:08;100966.00;;;8.12;100.00
77216;BME280;66210;53.282;9.864;2024-02-21T07:49:43;100962.59;;;8.12;100.00
77216;BME280;66210;53.282;9.864;2024-02-21T07:52:11;100958.63;;;8.02;100.00
77216;BME280;66210;53.282;9.864;2024-02-21T07:54:37;100964.16;;;8.10;100.00
77216;BME280;66210;53.282;9.864;2024-02-21T07:57:04;100968.63;;;8.14;100.00
77216;BME280;66210;53.282;9.864;2024-02-21T07:59:30;100959.47;;;8.16;100.00
77216;BME280;66210;53.282;9.864;2024-02-21T08:01:57;100962.00;;;8.16;100.00
77216;BME280;66210;53.282;9.864;2024-02-21T08:04:24;100964.44;;;8.15;100.00
77216;BME280;66210;53.282;9.864;2024-02-21T08:06:53;100951.56;;;8.11;100.00
77216;BME280;66210;53.282;9.864;2024-02-21T08:09:20;100951.94;;;8.18;100.00
77216;BME280;66210;53.282;9.864;2024-02-21T08:11:46;100949.53;;;8.19;100.00
77216;BME280;66210;53.282;9.864;2024-02-21T08:14:13;100955.56;;;8.21;100.00
77216;BME280;66210;53.282;9.864;2024-02-21T08:16:46;100945.16;;;8.17;100.00
77216;BME280;66210;53.282;9.864;2024-02-21T08:19:13;100943.50;;;8.17;100.00
77216;BME280;66210;53.282;9.864;2024-02-21T08:21:39;100942.09;;;8.22;100.00
77216;BME280;66210;53.282;9.864;2024-02-21T08:24:06;100946.47;;;8.25;100.00
77216;BME280;66210;53.282;9.864;2024-02-21T08:26:32;100946.66;;;8.28;100.00
77216;BME280;66210;53.282;9.864;2024-02-21T08:28:59;100944.28;;;8.31;100.00
77216;BME280;66210;53.282;9.864;2024-02-21T08:31:28;100934.28;;;8.32;100.00
77216;BME280;66210;53.282;9.864;2024-02-21T08:34:00;100918.28;;;8.33;100.00
77216;BME280;66210;53.282;9.864;2024-02-21T08:36:31;100942.59;;;8.45;100.00
77216;BME280;66210;53.282;9.864;2024-02-21T08:38:59;100934.72;;;8.40;100.00
77216;BME280;66210;53.282;9.864;2024-02-21T08:41:26;100928.97;;;8.43;100.00
77216;BME280;66210;53.282;9.864;2024-02-21T08:44:13;100926.38;;;8.41;100.00
77216;BME280;66210;53.282;9.864;2024-02-21T08:46:39;100929.75;;;8.42;100.00
77216;BME280;66210;53.282;9.864;2024-02-21T08:49:06;100930.53;;;8.41;100.00
77216;BME280;66210;53.282;9.864;2024-02-21T08:51:33;100928.91;;;8.41;100.00
77216;BME280;66210;53.282;9.864;2024-02-21T08:54:01;100936.75;;;8.46;100.00
77216;BME280;66210;53.282;9.864;2024-02-21T08:56:30;100934.28;;;8.47;100.00
77216;BME280;66210;53.282;9.864;2024-02-21T08:58:57;100929.53;;;8.52;100.00
77216;BME280;66210;53.282;9.864;2024-02-21T09:01:26;100924.25;;;8.49;100.00
77216;BME280;66210;53.282;9.864;2024-02-21T09:03:53;100920.06;;;8.49;100.00
77216;BME280;66210;53.282;9.864;2024-02-21T09:06:20;100928.63;;;8.51;100.00
77216;BME280;66210;53.282;9.864;2024-02-21T09:08:48;100924.34;;;8.50;100.00
77216;BME280;66210;53.282;9.864;2024-02-21T09:11:15;100919.47;;;8.53;100.00
77216;BME280;66210;53.282;9.864;2024-02-21T09:13:42;100923.50;;;8.50;100.00
77216;BME280;66210;53.282;9.864;2024-02-21T09:16:08;100921.06;;;8.38;100.00
77216;BME280;66210;53.282;9.864;2024-02-21T09:18:35;100932.19;;;8.40;100.00
77216;BME280;66210;53.282;9.864;2024-02-21T09:21:02;100919.94;;;8.33;100.00
77216;BME280;66210;53.282;9.864;2024-02-21T09:23:29;100923.59;;;8.38;100.00
77216;BME280;66210;53.282;9.864;2024-02-21T09:25:58;100929.16;;;8.46;100.00
77216;BME280;66210;53.282;9.864;2024-02-21T09:28:27;100928.28;;;8.45;100.00
77216;BME280;66210;53.282;9.864;2024-02-21T09:30:53;100923.91;;;8.43;100.00
77216;BME280;66210;53.282;9.864;2024-02-21T09:33:20;100913.88;;;8.44;100.00
77216;BME280;66210;53.282;9.864;2024-02-21T09:35:58;100922.44;;;8.46;100.00
77216;BME280;66210;53.282;9.864;2024-02-21T09:38:24;100905.50;;;8.45;100.00
77216;BME280;66210;53.282;9.864;2024-02-21T09:41:18;100911.44;;;8.46;100.00
77216;BME280;66210;53.282;9.864;2024-02-21T09:43:52;100902.88;;;8.44;100.00
77216;BME280;66210;53.282;9.864;2024-02-21T09:49:30;100898.69;;;8.44;100.00
77216;BME280;66210;53.282;9.864;2024-02-21T09:52:01;100894.41;;;8.43;100.00
77216;BME280;66210;53.282;9.864;2024-02-21T09:54:32;100890.31;;;8.45;100.00
77216;BME280;66210;53.282;9.864;2024-02-21T09:57:00;100884.44;;;8.46;100.00
77216;BME280;66210;53.282;9.864;2024-02-21T09:59:28;100885.41;;;8.48;100.00
77216;BME280;66210;53.282;9.864;2024-02-21T10:01:55;100889.00;;;8.52;100.00
77216;BME280;66210;53.282;9.864;2024-02-21T10:04:23;100888.34;;;8.56;100.00
77216;BME280;66210;53.282;9.864;2024-02-21T10:06:51;100896.16;;;8.59;100.00
77216;BME280;66210;53.282;9.864;2024-02-21T10:09:22;100890.28;;;8.60;100.00
77216;BME280;66210;53.282;9.864;2024-02-21T10:11:50;100889.56;;;8.63;100.00
77216;BME280;66210;53.282;9.864;2024-02-21T10:14:18;100880.50;;;8.66;100.00
77216;BME280;66210;53.282;9.864;2024-02-21T10:16:47;100888.44;;;8.72;100.00
77216;BME280;66210;53.282;9.864;2024-02-21T10:19:20;100887.13;;;8.79;100.00
77216;BME280;66210;53.282;9.864;2024-02-21T10:22:09;100880.50;;;8.81;100.00
77216;BME280;66210;53.282;9.864;2024-02-21T10:24:37;100879.59;;;8.81;100.00
77216;BME280;66210;53.282;9.864;2024-02-21T10:27:10;100873.31;;;8.74;100.00
77216;BME280;66210;53.282;9.864;2024-02-21T10:29:40;100871.94;;;8.79;100.00
77216;BME280;66210;53.282;9.864;2024-02-21T10:32:11;100871.94;;;8.79;100.00
77216;BME280;66210;53.282;9.864;2024-02-21T10:34:41;100867.72;;;8.80;100.00
77216;BME280;66210;53.282;9.864;2024-02-21T10:37:09;100872.81;;;8.80;100.00
77216;BME280;66210;53.282;9.864;2024-02-21T10:39:40;100870.38;;;8.81;100.00
77216;BME280;66210;53.282;9.864;2024-02-21T10:42:07;100863.78;;;8.85;100.00
77216;BME280;66210;53.282;9.864;2024-02-21T10:44:37;100863.78;;;8.85;100.00
77216;BME280;66210;53.282;9.864;2024-02-21T10:47:10;100858.72;;;8.85;100.00
77216;BME280;66210;53.282;9.864;2024-02-21T10:49:40;100843.41;;;8.83;100.00
77216;BME280;66210;53.282;9.864;2024-02-21T10:52:21;100845.94;;;8.83;100.00
77216;BME280;66210;53.282;9.864;2024-02-21T10:55:20;100857.22;;;8.88;100.00
77216;BME280;66210;53.282;9.864;2024-02-21T10:57:50;100851.31;;;8.88;100.00
77216;BME280;66210;53.282;9.864;2024-02-21T11:00:18;100855.56;;;8.89;100.00
77216;BME280;66210;53.282;9.864;2024-02-21T11:02:46;100851.31;;;8.88;100.00
77216;BME280;66210;53.282;9.864;2024-02-21T11:05:14;100849.28;;;8.82;100.00
77216;BME280;66210;53.282;9.864;2024-02-21T11:07:41;100853.50;;;8.82;100.00
77216;BME280;66210;53.282;9.864;2024-02-21T11:10:22;100855.06;;;8.80;100.00
77216;BME280;66210;53.282;9.864;2024-02-21T11:12:53;100843.88;;;8.76;100.00
77216;BME280;66210;53.282;9.864;2024-02-21T11:15:25;100841.09;;;8.71;100.00
77216;BME280;66210;53.282;9.864;2024-02-21T11:17:56;100841.19;;;8.73;100.00
77216;BME280;66210;53.282;9.864;2024-02-21T11:20:34;100838.31;;;8.67;100.00
77216;BME280;66210;53.282;9.864;2024-02-21T11:23:01;100836.66;;;8.67;100.00
77216;BME280;66210;53.282;9.864;2024-02-21T11:25:28;100827.22;;;8.65;100.00
77216;BME280;66210;53.282;9.864;2024-02-21T11:28:04;100822.97;;;8.64;100.00
77216;BME280;66210;53.282;9.864;2024-02-21T11:30:31;100820.31;;;8.62;100.00
77216;BME280;66210;53.282;9.864;2024-02-21T11:33:02;100819.47;;;8.62;100.00
77216;BME280;66210;53.282;9.864;2024-02-21T11:35:33;100821.44;;;8.67;100.00
77216;BME280;66210;53.282;9.864;2024-02-21T11:38:10;100821.53;;;8.69;100.00
77216;BME280;66210;53.282;9.864;2024-02-21T11:40:39;100815.59;;;8.68;100.00
77216;BME280;66210;53.282;9.864;2024-02-21T11:43:07;100812.38;;;8.71;100.00
77216;BME280;66210;53.282;9.864;2024-02-21T11:45:34;100787.50;;;8.64;100.00
77216;BME280;66210;53.282;9.864;2024-02-21T11:48:00;100801.53;;;8.73;100.00
77216;BME280;66210;53.282;9.864;2024-02-21T11:50:31;100797.41;;;8.76;100.00
77216;BME280;66210;53.282;9.864;2024-02-21T11:52:58;100788.25;;;8.78;100.00
77216;BME280;66210;53.282;9.864;2024-02-21T11:55:25;100780.63;;;8.78;100.00
77216;BME280;66210;53.282;9.864;2024-02-21T11:57:52;100766.31;;;8.78;100.00
77216;BME280;66210;53.282;9.864;2024-02-21T12:00:20;100762.91;;;8.78;100.00
77216;BME280;66210;53.282;9.864;2024-02-21T12:02:47;100767.16;;;8.79;100.00
77216;BME280;66210;53.282;9.864;2024-02-21T12:05:15;100768.22;;;8.82;100.00
77216;BME280;66210;53.282;9.864;2024-02-21T12:07:42;100763.00;;;8.79;100.00
77216;BME280;66210;53.282;9.864;2024-02-21T12:10:11;100759.75;;;8.82;100.00
77216;BME280;66210;53.282;9.864;2024-02-21T12:12:39;100751.09;;;8.78;100.00
77216;BME280;66210;53.282;9.864;2024-02-21T12:15:07;100750.25;;;8.78;100.00
77216;BME280;66210;53.282;9.864;2024-02-21T12:17:34;100750.34;;;8.79;100.00
77216;BME280;66210;53.282;9.864;2024-02-21T12:20:02;100744.38;;;8.79;100.00
77216;BME280;66210;53.282;9.864;2024-02-21T12:22:35;100736.94;;;8.82;100.00
77216;BME280;66210;53.282;9.864;2024-02-21T12:25:18;100732.91;;;8.85;100.00
77216;BME280;66210;53.282;9.864;2024-02-21T12:27:46;100739.16;;;8.92;100.00
77216;BME280;66210;53.282;9.864;2024-02-21T12:30:13;100736.81;;;8.95;100.00
77216;BME280;66210;53.282;9.864;2024-02-21T12:32:40;100731.16;;;9.01;100.00
77216;BME280;66210;53.282;9.864;2024-02-21T12:35:08;100731.50;;;9.07;100.00
77216;BME280;66210;53.282;9.864;2024-02-21T12:37:34;100728.56;;;9.15;100.00
77216;BME280;66210;53.282;9.864;2024-02-21T12:40:06;100719.44;;;9.19;100.00
77216;BME280;66210;53.282;9.864;2024-02-21T12:42:33;100715.72;;;9.29;100.00
77216;BME280;66210;53.282;9.864;2024-02-21T12:45:02;100710.06;;;9.34;100.00
77216;BME280;66210;53.282;9.864;2024-02-21T12:47:29;100707.84;;;9.41;100.00
77216;BME280;66210;53.282;9.864;2024-02-21T12:49:56;100697.72;;;9.41;100.00
77216;BME280;66210;53.282;9.864;2024-02-21T12:52:23;100692.72;;;9.42;100.00
77216;BME280;66210;53.282;9.864;2024-02-21T12:54:50;100694.63;;;9.46;100.00
77216;BME280;66210;53.282;9.864;2024-02-21T12:57:18;100691.16;;;9.44;100.00
77216;BME280;66210;53.282;9.864;2024-02-21T12:59:44;100687.88;;;9.47;100.00
77216;BME280;66210;53.282;9.864;2024-02-21T13:02:11;100684.72;;;9.51;100.00
77216;BME280;66210;53.282;9.864;2024-02-21T13:04:38;100669.19;;;9.45;100.00
77216;BME280;66210;53.282;9.864;2024-02-21T13:07:07;100671.81;;;9.46;100.00
77216;BME280;66210;53.282;9.864;2024-02-21T13:09:34;100674.63;;;9.52;100.00
77216;BME280;66210;53.282;9.864;2024-02-21T13:12:01;100671.34;;;9.55;100.00
77216;BME280;66210;53.282;9.864;2024-02-21T13:14:29;100679.91;;;9.57;100.00